Time;durP1;ratioP1;P1;durP2;ratioP2;P2;SDS_P1;SDS_P2;PMS_P1;PMS_P2;Temp;Humidity;BMP_temperature;BMP_pressure;BME280_temperature;BME280_humidity;BME280_pressure;Samples;Min_cycle;Max_cycle;Signal;HPM_P1;HPM_P2
2023/08/10 00:01:31;;;;;;;21.23;6.57;;;23.30;78.30;;;;;;5025256;28;20085;-57
2023/08/10 00:03:57;;;;;;;22.50;7.13;;;23.30;78.20;;;;;;5025115;28;20453;-57
2023/08/10 00:06:22;;;;;;;19.85;7.15;;;23.30;78.30;;;;;;5023413;28;20046;-56
2023/08/10 00:08:49;;;;;;;22.13;6.32;;;23.30;78.50;;;;;;5023580;28;20038;-57
2023/08/10 00:11:15;;;;;;;17.77;6.88;;;23.30;78.60;;;;;;5023311;28;20045;-57
2023/08/10 00:13:41;;;;;;;24.83;7.45;;;23.30;78.70;;;;;;5023381;28;20026;-57
2023/08/10 00:16:06;;;;;;;21.70;6.78;;;23.30;78.70;;;;;;5024838;28;20045;-56
2023/08/10 00:18:32;;;;;;;22.67;6.50;;;23.30;78.80;;;;;;5025076;28;20121;-56
2023/08/10 00:20:57;;;;;;;16.00;5.75;;;23.20;78.80;;;;;;5006993;28;20038;-57
2023/08/10 00:23:23;;;;;;;22.92;6.82;;;23.20;78.90;;;;;;5023450;28;20037;-57
2023/08/10 00:25:48;;;;;;;19.80;6.70;;;23.20;78.90;;;;;;5024707;28;20041;-56
2023/08/10 00:28:15;;;;;;;21.23;5.95;;;23.20;79.00;;;;;;5023364;28;20030;-56
2023/08/10 00:30:40;;;;;;;18.23;5.65;;;23.10;79.00;;;;;;5023157;28;20064;-57
2023/08/10 00:33:07;;;;;;;17.58;5.85;;;23.20;79.20;;;;;;5024451;28;20057;-57
2023/08/10 00:35:32;;;;;;;18.83;5.97;;;23.10;79.10;;;;;;5023270;28;20387;-56
2023/08/10 00:37:58;;;;;;;18.90;6.13;;;23.10;79.10;;;;;;5024675;28;20037;-56
2023/08/10 00:40:23;;;;;;;20.65;6.88;;;23.10;79.20;;;;;;5023102;28;20025;-56
2023/08/10 00:42:49;;;;;;;16.52;5.03;;;23.10;79.20;;;;;;5024552;28;20030;-56
2023/08/10 00:45:14;;;;;;;19.92;5.50;;;23.10;79.30;;;;;;5023233;28;20354;-57
2023/08/10 00:47:40;;;;;;;12.50;6.00;;;23.00;79.40;;;;;;4993811;28;20024;-57
2023/08/10 00:50:06;;;;;;;21.95;6.63;;;23.00;79.40;;;;;;5003638;28;20054;-57
2023/08/10 00:52:33;;;;;;;14.10;6.30;;;23.00;79.40;;;;;;5019831;28;20029;-56
2023/08/10 00:55:00;;;;;;;17.10;6.07;;;23.00;79.50;;;;;;5019642;28;20042;-57
2023/08/10 00:57:25;;;;;;;18.92;5.90;;;22.90;79.50;;;;;;5019780;28;20081;-56
2023/08/10 00:59:51;;;;;;;20.45;5.57;;;22.90;79.60;;;;;;5003133;28;20026;-57
2023/08/10 01:02:16;;;;;;;14.85;5.13;;;22.90;79.60;;;;;;5003018;28;20082;-57
2023/08/10 01:04:42;;;;;;;11.80;4.70;;;22.90;79.70;;;;;;5029634;28;20022;-56
2023/08/10 01:07:45;;;;;;;13.23;4.45;;;22.90;79.70;;;;;;5035956;28;20134;-57
2023/08/10 01:10:44;;;;;;;13.65;4.68;;;22.90;79.80;;;;;;5004451;28;20038;-56
2023/08/10 01:13:15;;;;;;;12.40;4.85;;;22.90;79.90;;;;;;5036306;28;20498;-57
2023/08/10 01:15:46;;;;;;;15.35;4.38;;;22.80;79.90;;;;;;5004714;28;20035;-57
2023/08/10 01:18:16;;;;;;;12.93;4.32;;;22.80;79.90;;;;;;5019358;28;20328;-57
2023/08/10 01:20:43;;;;;;;12.05;3.85;;;22.80;80.00;;;;;;5022801;28;20033;-57
2023/08/10 01:23:46;;;;;;;11.68;4.28;;;22.80;80.00;;;;;;5008680;28;20052;-56
2023/08/10 01:26:11;;;;;;;12.70;3.97;;;22.80;80.20;;;;;;5009932;28;20149;-57
2023/08/10 01:28:37;;;;;;;10.38;4.10;;;22.70;80.30;;;;;;5010121;28;20022;-56
2023/08/10 01:31:02;;;;;;;14.20;4.63;;;22.70;80.30;;;;;;5009972;28;20427;-56
2023/08/10 01:33:29;;;;;;;12.00;4.82;;;22.70;80.40;;;;;;5026302;28;20026;-56
2023/08/10 01:35:55;;;;;;;7.93;3.90;;;22.70;80.40;;;;;;5027702;28;20072;-57
2023/08/10 01:38:20;;;;;;;8.95;4.07;;;22.70;80.50;;;;;;5025532;28;20030;-57
2023/08/10 01:40:47;;;;;;;10.73;3.65;;;22.70;80.50;;;;;;5027602;28;20037;-57
2023/08/10 01:43:13;;;;;;;14.13;4.03;;;22.70;80.60;;;;;;5027494;28;20074;-56
2023/08/10 01:45:41;;;;;;;11.55;4.05;;;22.60;80.60;;;;;;5026011;28;20030;-56
2023/08/10 01:48:09;;;;;;;9.70;4.05;;;22.60;80.60;;;;;;5026029;28;20038;-56
2023/08/10 01:50:38;;;;;;;11.50;3.92;;;22.60;80.70;;;;;;5025886;28;20103;-57
2023/08/10 01:53:09;;;;;;;7.95;3.42;;;22.60;80.70;;;;;;5026262;28;20026;-56
2023/08/10 01:55:35;;;;;;;10.88;3.42;;;22.60;80.80;;;;;;5025777;28;20033;-57
2023/08/10 01:58:00;;;;;;;11.27;3.75;;;22.60;80.90;;;;;;5025968;28;20032;-56
2023/08/10 02:00:26;;;;;;;9.35;3.60;;;22.50;81.00;;;;;;5025837;28;20180;-56
2023/08/10 02:02:51;;;;;;;7.97;3.75;;;22.50;81.10;;;;;;5025739;28;20040;-57
2023/08/10 02:05:17;;;;;;;10.20;3.75;;;22.50;81.10;;;;;;5025704;28;20436;-57
2023/08/10 02:07:48;;;;;;;10.02;3.70;;;22.50;81.10;;;;;;5027048;28;20450;-56
2023/08/10 02:10:14;;;;;;;10.57;3.67;;;22.50;81.20;;;;;;5025865;28;20034;-57
2023/08/10 02:12:39;;;;;;;11.70;3.67;;;22.50;81.30;;;;;;5026032;28;20029;-57
2023/08/10 02:15:05;;;;;;;8.18;3.63;;;22.40;81.20;;;;;;5026841;28;20033;-56
2023/08/10 02:17:35;;;;;;;10.00;3.13;;;22.40;81.30;;;;;;5026714;28;20381;-57
2023/08/10 02:20:14;;;;;;;8.98;3.50;;;22.40;81.30;;;;;;5026638;28;20033;-56
2023/08/10 02:22:48;;;;;;;7.55;3.55;;;22.40;81.50;;;;;;5025670;28;20113;-56
2023/08/10 02:25:13;;;;;;;8.38;3.38;;;22.30;81.60;;;;;;5026669;28;20035;-56
2023/08/10 02:27:42;;;;;;;6.03;3.33;;;22.30;81.60;;;;;;5025367;28;20096;-57
2023/08/10 02:30:08;;;;;;;5.63;3.13;;;22.30;81.80;;;;;;5025191;28;20041;-56
2023/08/10 02:32:34;;;;;;;7.00;3.35;;;22.30;81.80;;;;;;5008897;28;20148;-57
2023/08/10 02:35:00;;;;;;;8.88;4.00;;;22.30;81.90;;;;;;5025121;28;20125;-56
2023/08/10 02:37:25;;;;;;;15.00;3.83;;;22.30;82.00;;;;;;5041659;28;20091;-56
2023/08/10 02:39:51;;;;;;;9.80;3.80;;;22.20;82.00;;;;;;5024989;28;20030;-56
2023/08/10 02:42:16;;;;;;;9.10;4.07;;;22.20;82.10;;;;;;5041434;28;20045;-57
2023/08/10 02:44:43;;;;;;;7.72;3.67;;;22.20;82.10;;;;;;5026440;28;20030;-56
2023/08/10 02:47:08;;;;;;;10.75;3.70;;;22.30;82.10;;;;;;5024700;28;20044;-56
2023/08/10 02:49:34;;;;;;;8.70;3.50;;;22.20;82.10;;;;;;5026054;28;20033;-57
2023/08/10 02:51:59;;;;;;;6.32;3.58;;;22.20;82.10;;;;;;5024888;28;20045;-56
2023/08/10 02:54:25;;;;;;;9.57;3.65;;;22.20;82.20;;;;;;5025041;28;20025;-56
2023/08/10 02:56:50;;;;;;;10.00;4.10;;;22.10;82.20;;;;;;5026164;28;20030;-57
2023/08/10 02:59:16;;;;;;;9.02;3.80;;;22.20;82.40;;;;;;5026180;28;20036;-57
2023/08/10 03:01:43;;;;;;;9.05;3.90;;;22.10;82.50;;;;;;5024588;28;20034;-56
2023/08/10 03:04:09;;;;;;;11.98;3.70;;;22.10;82.50;;;;;;5024620;28;20045;-57
2023/08/10 03:06:34;;;;;;;6.63;3.63;;;22.10;82.60;;;;;;5024640;28;20429;-57
2023/08/10 03:09:00;;;;;;;8.45;3.63;;;22.10;82.50;;;;;;5024633;28;20501;-56
2023/08/10 03:11:26;;;;;;;9.82;3.63;;;22.10;82.70;;;;;;5024495;28;20086;-56
2023/08/10 03:13:51;;;;;;;13.98;3.78;;;22.00;82.80;;;;;;5025813;28;20084;-56
2023/08/10 03:16:17;;;;;;;11.43;4.13;;;22.00;82.90;;;;;;5025759;28;20133;-56
2023/08/10 03:18:43;;;;;;;9.55;3.33;;;22.00;83.20;;;;;;5025659;28;20024;-57
2023/08/10 03:21:08;;;;;;;12.60;3.70;;;22.00;83.20;;;;;;5024248;28;20097;-57
2023/08/10 03:23:34;;;;;;;24.23;5.18;;;22.00;83.20;;;;;;5025643;28;20529;-56
2023/08/10 03:25:59;;;;;;;14.02;4.20;;;22.00;83.10;;;;;;5008145;28;20038;-56
2023/08/10 03:28:25;;;;;;;11.90;4.15;;;22.00;83.20;;;;;;5025665;28;20021;-57
2023/08/10 03:30:50;;;;;;;11.15;4.15;;;21.90;83.10;;;;;;5024036;28;20041;-56
2023/08/10 03:33:16;;;;;;;11.48;4.65;;;21.90;83.30;;;;;;5025431;28;20098;-57
2023/08/10 03:35:42;;;;;;;41.95;7.93;;;21.90;83.50;;;;;;5025595;28;20060;-56
2023/08/10 03:38:08;;;;;;;93.45;12.68;;;21.90;83.30;;;;;;5024471;28;20049;-56
2023/08/10 03:40:34;;;;;;;63.72;11.57;;;21.90;83.30;;;;;;5024015;28;20034;-56
2023/08/10 03:42:59;;;;;;;34.90;9.05;;;21.90;83.40;;;;;;5040538;28;20060;-56
2023/08/10 03:45:25;;;;;;;41.47;8.77;;;21.80;84.00;;;;;;5023641;28;20061;-56
2023/08/10 03:47:50;;;;;;;28.38;7.97;;;21.80;83.50;;;;;;5024072;28;20030;-56
2023/08/10 03:50:16;;;;;;;50.88;8.77;;;21.80;83.60;;;;;;5023834;28;20056;-57
2023/08/10 03:52:41;;;;;;;48.45;8.68;;;21.80;83.70;;;;;;5025274;28;20383;-56
2023/08/10 03:55:07;;;;;;;31.23;7.80;;;21.70;83.70;;;;;;5039457;28;20060;-56
2023/08/10 03:57:33;;;;;;;32.00;8.25;;;21.70;83.70;;;;;;5024010;28;20026;-56
2023/08/10 03:59:58;;;;;;;34.80;8.45;;;21.70;83.80;;;;;;5023641;28;20375;-56
2023/08/10 04:02:24;;;;;;;32.15;8.07;;;21.70;83.80;;;;;;5023833;28;20029;-57
2023/08/10 04:04:50;;;;;;;40.15;8.98;;;21.70;83.90;;;;;;5025036;28;20058;-56
2023/08/10 04:07:15;;;;;;;32.85;8.68;;;21.60;84.00;;;;;;5023563;28;20033;-57
2023/08/10 04:09:46;;;;;;;34.90;9.05;;;21.60;84.00;;;;;;5023636;28;20121;-57
2023/08/10 04:12:13;;;;;;;36.20;8.10;;;21.60;84.00;;;;;;5024090;28;20351;-57
2023/08/10 04:14:38;;;;;;;38.03;8.77;;;21.60;84.00;;;;;;5023618;28;20017;-57
2023/08/10 04:17:04;;;;;;;32.38;8.93;;;21.60;83.90;;;;;;5025162;28;20026;-56
2023/08/10 04:19:30;;;;;;;25.98;7.85;;;21.60;83.90;;;;;;5023794;28;20053;-57
2023/08/10 04:21:56;;;;;;;26.02;7.82;;;21.60;83.90;;;;;;5025008;28;20030;-56
2023/08/10 04:24:22;;;;;;;21.98;8.35;;;21.50;83.90;;;;;;5024991;28;20085;-57
2023/08/10 04:26:47;;;;;;;22.35;7.13;;;21.50;83.90;;;;;;5023551;28;20399;-57
2023/08/10 04:29:13;;;;;;;29.73;7.72;;;21.50;84.00;;;;;;5023436;28;20038;-57
2023/08/10 04:31:38;;;;;;;24.50;6.63;;;21.50;83.90;;;;;;5024787;28;20437;-57
2023/08/10 04:34:04;;;;;;;24.42;6.55;;;21.50;84.00;;;;;;5024965;28;20359;-56
2023/08/10 04:36:29;;;;;;;34.58;6.95;;;21.50;84.10;;;;;;5024963;28;20089;-59
2023/08/10 04:38:55;;;;;;;23.75;6.85;;;21.50;84.20;;;;;;5024818;28;20022;-59
2023/08/10 04:41:21;;;;;;;22.13;6.57;;;21.40;84.20;;;;;;5024826;28;20379;-59
2023/08/10 04:43:46;;;;;;;28.33;6.82;;;21.40;84.30;;;;;;5023468;28;20336;-59
2023/08/10 04:46:12;;;;;;;27.58;6.30;;;21.40;84.50;;;;;;5024096;28;20033;-59
2023/08/10 04:48:37;;;;;;;22.63;6.47;;;21.40;84.50;;;;;;5023488;28;20040;-59
2023/08/10 04:51:04;;;;;;;21.98;6.00;;;21.30;84.50;;;;;;5006706;28;20033;-59
2023/08/10 04:53:29;;;;;;;23.42;6.00;;;21.30;84.60;;;;;;5022717;28;20074;-59
2023/08/10 04:55:55;;;;;;;33.25;6.20;;;21.30;84.80;;;;;;5023558;28;20387;-59
2023/08/10 04:58:20;;;;;;;25.75;6.75;;;21.30;84.80;;;;;;5009436;28;20037;-59
2023/08/10 05:00:46;;;;;;;23.65;6.00;;;21.30;84.90;;;;;;5010924;28;20026;-59
2023/08/10 05:03:11;;;;;;;24.13;6.28;;;21.30;85.00;;;;;;5027428;28;20080;-59
2023/08/10 05:05:39;;;;;;;27.60;6.00;;;21.30;85.10;;;;;;5027402;28;20037;-59
2023/08/10 05:08:04;;;;;;;23.42;6.00;;;21.30;85.10;;;;;;5026535;28;20037;-59
2023/08/10 05:10:30;;;;;;;15.40;5.35;;;21.20;85.00;;;;;;5026647;28;20084;-59
2023/08/10 05:12:55;;;;;;;17.40;5.18;;;21.20;85.00;;;;;;5026631;28;20022;-59
2023/08/10 05:15:21;;;;;;;19.75;5.38;;;21.20;85.10;;;;;;5026740;28;20026;-59
2023/08/10 05:17:46;;;;;;;16.58;4.85;;;21.20;85.10;;;;;;5027973;28;20105;-58
2023/08/10 05:20:12;;;;;;;15.35;5.53;;;21.20;85.10;;;;;;5026426;28;20034;-59
2023/08/10 05:22:40;;;;;;;13.32;5.00;;;21.20;85.20;;;;;;5028420;28;20034;-59
2023/08/10 05:25:08;;;;;;;14.25;5.07;;;21.20;85.30;;;;;;5026503;28;20050;-59
2023/08/10 05:27:35;;;;;;;21.20;5.18;;;21.10;85.30;;;;;;5027917;28;20034;-59
2023/08/10 05:30:00;;;;;;;14.65;5.28;;;21.10;85.40;;;;;;5026229;28;20080;-59
2023/08/10 05:32:26;;;;;;;16.05;5.22;;;21.10;85.30;;;;;;5026194;28;20406;-59
2023/08/10 05:34:52;;;;;;;20.08;5.35;;;21.10;85.20;;;;;;5027616;28;20073;-59
2023/08/10 05:37:18;;;;;;;20.95;5.15;;;21.10;85.20;;;;;;5026852;28;20041;-59
2023/08/10 05:39:44;;;;;;;14.68;5.05;;;21.10;85.30;;;;;;5026488;28;20375;-59
2023/08/10 05:42:09;;;;;;;19.50;5.68;;;21.10;85.30;;;;;;5026266;28;20081;-59
2023/08/10 05:44:35;;;;;;;21.55;4.60;;;21.00;85.40;;;;;;5025988;28;20026;-59
2023/08/10 05:47:00;;;;;;;18.13;5.32;;;21.00;85.50;;;;;;5026235;28;20044;-59
2023/08/10 05:49:26;;;;;;;18.35;4.43;;;21.00;85.60;;;;;;5027357;28;20026;-59
2023/08/10 05:51:51;;;;;;;14.13;4.35;;;21.00;85.60;;;;;;5027228;28;20402;-59
2023/08/10 05:54:17;;;;;;;18.40;5.25;;;21.00;85.60;;;;;;5025715;28;20458;-59
2023/08/10 05:56:42;;;;;;;17.63;4.85;;;21.00;85.60;;;;;;5026939;28;20107;-59
2023/08/10 05:59:08;;;;;;;18.50;3.78;;;21.00;85.80;;;;;;5025797;28;20048;-59
2023/08/10 06:01:33;;;;;;;14.52;4.15;;;20.90;86.10;;;;;;5020146;28;20030;-59
2023/08/10 06:03:59;;;;;;;13.13;4.28;;;20.90;86.40;;;;;;5024484;28;20080;-59
2023/08/10 06:06:25;;;;;;;8.82;3.70;;;20.90;86.50;;;;;;5022976;28;20038;-59
2023/08/10 06:08:50;;;;;;;12.15;3.55;;;20.90;86.70;;;;;;5025142;28;20030;-59
2023/08/10 06:11:16;;;;;;;13.68;4.22;;;20.90;87.10;;;;;;5004508;28;20125;-59
2023/08/10 06:13:42;;;;;;;8.38;3.20;;;20.80;87.30;;;;;;5022107;28;20039;-59
2023/08/10 06:16:07;;;;;;;10.73;3.03;;;20.80;87.50;;;;;;5007117;28;20053;-59
2023/08/10 06:18:34;;;;;;;8.50;3.20;;;20.70;87.60;;;;;;5022392;28;20031;-59
2023/08/10 06:21:01;;;;;;;12.07;3.08;;;20.70;87.60;;;;;;5007393;28;20447;-59
2023/08/10 06:23:28;;;;;;;7.60;2.63;;;20.70;87.90;;;;;;4989592;28;20038;-59
2023/08/10 06:25:54;;;;;;;10.63;2.70;;;20.70;88.00;;;;;;5021958;28;20454;-59
2023/08/10 06:28:20;;;;;;;10.38;3.25;;;20.70;88.10;;;;;;5025584;28;20041;-59
2023/08/10 06:30:46;;;;;;;11.30;3.13;;;20.60;88.80;;;;;;5008817;28;20026;-59
2023/08/10 06:33:11;;;;;;;6.40;3.10;;;20.60;88.30;;;;;;5025287;28;20110;-59
2023/08/10 06:35:41;;;;;;;5.60;2.60;;;20.60;88.60;;;;;;5026459;28;20021;-59
2023/08/10 06:38:07;;;;;;;9.43;3.40;;;20.60;88.70;;;;;;5025242;28;20026;-59
2023/08/10 06:40:32;;;;;;;9.20;3.25;;;20.60;88.70;;;;;;5024971;28;20111;-59
2023/08/10 06:42:58;;;;;;;6.80;2.92;;;20.60;88.80;;;;;;5024804;28;20447;-59
2023/08/10 06:45:24;;;;;;;11.77;2.88;;;20.60;88.90;;;;;;5025619;28;20030;-59
2023/08/10 06:47:49;;;;;;;8.07;3.17;;;20.60;89.10;;;;;;5024406;28;20040;-59
2023/08/10 06:50:16;;;;;;;7.30;2.72;;;20.50;89.00;;;;;;5022602;28;20033;-59
2023/08/10 06:52:41;;;;;;;11.70;3.05;;;20.50;89.00;;;;;;5024362;28;20033;-59
2023/08/10 06:55:07;;;;;;;9.65;2.65;;;20.60;89.10;;;;;;5020874;28;20030;-59
2023/08/10 06:57:34;;;;;;;11.68;2.90;;;20.60;89.10;;;;;;5024122;28;20030;-59
2023/08/10 07:00:02;;;;;;;9.73;3.33;;;20.50;89.10;;;;;;5024393;28;20084;-59
2023/08/10 07:02:28;;;;;;;16.52;3.47;;;20.50;89.40;;;;;;5020183;28;20184;-59
2023/08/10 07:04:54;;;;;;;6.15;2.90;;;20.60;89.50;;;;;;5005765;28;20125;-58
2023/08/10 07:07:19;;;;;;;7.60;3.10;;;20.60;89.40;;;;;;5006214;28;20034;-59
2023/08/10 07:09:46;;;;;;;11.75;3.22;;;20.50;89.20;;;;;;5007516;28;20034;-59
2023/08/10 07:12:12;;;;;;;28.88;3.13;;;20.50;89.10;;;;;;5024426;28;20030;-59
2023/08/10 07:14:37;;;;;;;6.78;2.45;;;20.60;89.10;;;;;;5040517;28;20026;-59
2023/08/10 07:17:03;;;;;;;9.90;3.00;;;20.60;89.20;;;;;;5023243;28;20022;-59
2023/08/10 07:19:28;;;;;;;5.97;2.65;;;20.60;89.30;;;;;;5024002;28;20505;-59
2023/08/10 07:21:55;;;;;;;3.88;2.22;;;20.60;89.50;;;;;;5025259;28;20026;-59
2023/08/10 07:24:24;;;;;;;7.60;2.70;;;20.60;89.60;;;;;;5019516;28;20153;-59
2023/08/10 07:26:51;;;;;;;6.10;2.63;;;20.60;89.50;;;;;;5004255;28;20074;-59
2023/08/10 07:29:18;;;;;;;6.35;2.85;;;20.60;89.60;;;;;;5016659;28;20034;-59
2023/08/10 07:31:44;;;;;;;11.25;2.78;;;20.60;89.50;;;;;;5025408;28;20041;-59
2023/08/10 07:34:10;;;;;;;9.45;2.40;;;20.60;89.40;;;;;;5022930;28;20034;-59
2023/08/10 07:36:36;;;;;;;7.32;2.35;;;20.60;89.30;;;;;;5023750;28;20029;-59
2023/08/10 07:39:03;;;;;;;8.35;2.45;;;20.60;89.40;;;;;;5025085;28;20030;-59
2023/08/10 07:41:29;;;;;;;11.10;2.80;;;20.60;89.40;;;;;;5023293;28;20036;-59
2023/08/10 07:43:54;;;;;;;9.85;2.92;;;20.60;89.40;;;;;;5025131;28;20050;-59
2023/08/10 07:46:20;;;;;;;18.20;3.08;;;20.60;89.40;;;;;;5023301;28;20429;-59
2023/08/10 07:48:46;;;;;;;14.15;3.50;;;20.70;89.40;;;;;;5023682;28;20076;-59
2023/08/10 07:51:11;;;;;;;20.77;4.10;;;20.70;89.60;;;;;;5039444;28;20030;-59
2023/08/10 07:53:37;;;;;;;9.38;2.97;;;20.70;89.80;;;;;;5023760;28;20025;-59
2023/08/10 07:56:03;;;;;;;9.23;3.20;;;20.70;89.50;;;;;;5023370;28;20113;-59
2023/08/10 07:58:29;;;;;;;11.35;3.10;;;20.70;89.50;;;;;;5023316;28;20044;-60
2023/08/10 08:00:54;;;;;;;12.35;3.10;;;20.70;89.30;;;;;;5023057;28;20034;-59
2023/08/10 08:03:21;;;;;;;16.20;2.97;;;20.70;89.30;;;;;;5025341;28;20041;-59
2023/08/10 08:05:46;;;;;;;15.90;3.65;;;20.70;89.20;;;;;;5023377;28;20037;-59
2023/08/10 08:08:12;;;;;;;16.40;3.28;;;20.70;89.20;;;;;;5006215;28;20411;-59
2023/08/10 08:10:37;;;;;;;14.25;3.20;;;20.70;89.10;;;;;;5023161;28;20362;-59
2023/08/10 08:13:03;;;;;;;18.83;3.60;;;20.70;88.90;;;;;;5023112;28;20367;-59
2023/08/10 08:15:39;;;;;;;19.00;3.88;;;20.70;88.70;;;;;;5023253;28;20026;-59
2023/08/10 08:18:40;;;;;;;19.20;3.97;;;20.80;88.60;;;;;;5023589;28;20034;-59
2023/08/10 08:21:05;;;;;;;22.45;4.00;;;20.80;88.60;;;;;;5023082;28;20044;-59
2023/08/10 08:23:31;;;;;;;14.55;3.35;;;20.80;88.60;;;;;;5024621;28;20085;-59
2023/08/10 08:25:57;;;;;;;12.95;3.67;;;20.80;88.40;;;;;;5023100;28;20471;-59
2023/08/10 08:28:22;;;;;;;22.55;3.97;;;20.80;88.30;;;;;;5023102;28;20343;-60
2023/08/10 08:30:49;;;;;;;17.65;4.03;;;20.80;88.30;;;;;;5023846;28;20037;-59
2023/08/10 08:33:16;;;;;;;10.95;3.80;;;20.80;88.20;;;;;;5010803;28;20022;-59
2023/08/10 08:35:43;;;;;;;14.68;4.00;;;20.80;88.10;;;;;;5026865;28;20030;-59
2023/08/10 08:38:09;;;;;;;15.60;3.80;;;20.80;88.10;;;;;;5026528;28;20042;-59
2023/08/10 08:40:35;;;;;;;24.80;4.72;;;20.80;88.00;;;;;;5010295;28;20050;-58
2023/08/10 08:43:00;;;;;;;19.23;4.22;;;20.80;88.00;;;;;;5026732;28;20037;-59
2023/08/10 08:45:26;;;;;;;22.63;4.57;;;20.80;88.00;;;;;;5026766;28;20037;-59
2023/08/10 08:47:52;;;;;;;16.65;4.10;;;20.90;87.90;;;;;;5026852;28;20022;-59
2023/08/10 08:50:18;;;;;;;17.08;4.45;;;20.90;87.80;;;;;;5025517;28;20121;-59
2023/08/10 08:52:43;;;;;;;21.75;4.38;;;20.90;87.70;;;;;;5024841;28;20018;-59
2023/08/10 08:55:11;;;;;;;17.27;4.85;;;20.90;87.60;;;;;;5023899;28;20052;-59
2023/08/10 08:57:37;;;;;;;29.15;4.82;;;20.90;87.50;;;;;;5004566;28;20022;-59
2023/08/10 09:00:03;;;;;;;28.10;5.15;;;21.00;87.60;;;;;;5006627;28;20030;-59
2023/08/10 09:02:29;;;;;;;21.60;4.70;;;21.00;87.60;;;;;;5006783;28;20033;-59
2023/08/10 09:04:59;;;;;;;18.95;4.70;;;21.00;87.60;;;;;;5023257;28;20102;-59
2023/08/10 09:07:26;;;;;;;15.70;3.95;;;21.00;87.60;;;;;;5024534;28;20145;-59
2023/08/10 09:09:51;;;;;;;17.70;4.22;;;21.00;87.60;;;;;;5024407;28;20049;-59
2023/08/10 09:12:37;;;;;;;26.60;4.82;;;21.00;87.60;;;;;;5024578;28;20060;-59
2023/08/10 09:15:03;;;;;;;28.17;6.13;;;21.00;87.50;;;;;;5025805;28;20102;-59
2023/08/10 09:17:29;;;;;;;32.70;5.95;;;21.10;87.40;;;;;;5026856;28;20030;-59
2023/08/10 09:19:55;;;;;;;34.67;5.93;;;21.10;87.50;;;;;;5009781;28;20067;-59
2023/08/10 09:22:27;;;;;;;40.50;5.97;;;21.10;87.40;;;;;;5026599;28;20033;-58
2023/08/10 09:24:53;;;;;;;52.40;8.00;;;21.10;87.40;;;;;;5026134;28;20032;-59
2023/08/10 09:27:18;;;;;;;43.78;6.22;;;21.20;87.50;;;;;;5026220;28;20038;-59
2023/08/10 09:29:45;;;;;;;30.08;5.50;;;21.20;87.40;;;;;;5026227;28;20026;-59
2023/08/10 09:32:17;;;;;;;31.42;5.38;;;21.20;87.50;;;;;;5026055;28;20018;-59
2023/08/10 09:34:46;;;;;;;25.85;5.70;;;21.20;87.50;;;;;;5029781;28;20394;-59
2023/08/10 09:37:15;;;;;;;28.17;5.93;;;21.30;87.70;;;;;;5025993;28;20093;-59
2023/08/10 09:39:41;;;;;;;25.60;5.50;;;21.30;87.00;;;;;;5026555;28;20033;-59
2023/08/10 09:42:06;;;;;;;29.27;4.75;;;21.30;86.80;;;;;;5018699;28;20034;-59
2023/08/10 09:44:46;;;;;;;39.67;7.43;;;21.30;87.00;;;;;;5023357;28;20065;-59
2023/08/10 09:47:12;;;;;;;46.42;7.13;;;21.40;87.30;;;;;;5018557;28;20029;-58
2023/08/10 09:50:14;;;;;;;41.10;6.32;;;21.50;87.40;;;;;;5033673;28;20064;-59
2023/08/10 09:52:40;;;;;;;45.63;7.10;;;21.60;87.00;;;;;;4929134;29;20063;-59
2023/08/10 09:55:07;;;;;;;40.22;7.13;;;21.60;86.90;;;;;;4997672;28;20041;-57
2023/08/10 09:57:32;;;;;;;49.95;7.50;;;21.70;86.70;;;;;;5024833;28;20033;-56
2023/08/10 09:59:58;;;;;;;53.97;8.13;;;21.70;86.10;;;;;;5027515;28;20030;-56
2023/08/10 10:02:24;;;;;;;55.35;8.23;;;21.80;86.10;;;;;;5023341;28;20046;-56
2023/08/10 10:04:50;;;;;;;82.72;9.27;;;21.80;86.20;;;;;;5022780;28;20052;-56
2023/08/10 10:07:23;;;;;;;64.63;9.13;;;21.80;85.70;;;;;;5003213;28;20199;-57
2023/08/10 10:09:49;;;;;;;59.33;9.15;;;21.80;85.70;;;;;;5023242;28;20061;-57
2023/08/10 10:12:15;;;;;;;81.65;10.73;;;21.80;86.10;;;;;;5000523;28;20037;-57
2023/08/10 10:14:47;;;;;;;47.72;8.73;;;21.80;86.20;;;;;;5024122;28;20022;-56
2023/08/10 10:17:14;;;;;;;68.43;9.80;;;21.80;86.20;;;;;;5018894;28;20033;-56
2023/08/10 10:19:40;;;;;;;73.57;11.13;;;21.80;85.90;;;;;;5023224;28;20041;-56
2023/08/10 10:22:05;;;;;;;59.92;10.40;;;21.80;86.00;;;;;;5021696;28;20022;-57
2023/08/10 10:24:34;;;;;;;65.97;8.57;;;21.90;86.00;;;;;;5024061;28;20546;-56
2023/08/10 10:27:00;;;;;;;79.25;10.80;;;22.00;85.70;;;;;;5022188;28;20184;-56
2023/08/10 10:29:55;;;;;;;55.22;9.00;;;22.00;85.60;;;;;;5009189;28;20034;-57
2023/08/10 10:32:22;;;;;;;56.20;9.30;;;22.10;85.20;;;;;;5022991;28;20061;-57
2023/08/10 10:34:51;;;;;;;58.42;8.35;;;22.10;85.10;;;;;;5020827;28;20088;-56
2023/08/10 10:37:18;;;;;;;126.47;15.82;;;22.10;85.00;;;;;;5022974;28;20037;-56
2023/08/10 10:39:52;;;;;;;53.63;10.38;;;22.20;85.10;;;;;;5021332;28;20021;-56
2023/08/10 10:42:19;;;;;;;74.28;11.27;;;22.20;84.80;;;;;;5021538;28;20490;-57
2023/08/10 10:45:07;;;;;;;65.03;10.85;;;22.30;84.50;;;;;;5024056;28;20049;-57
2023/08/10 10:47:37;;;;;;;62.75;9.80;;;22.30;84.20;;;;;;4990005;28;20375;-57
2023/08/10 10:50:20;;;;;;;58.97;9.38;;;22.40;84.20;;;;;;5005466;28;20030;-56
2023/08/10 10:52:53;;;;;;;70.90;10.27;;;22.40;83.90;;;;;;5018845;28;20039;-56
2023/08/10 10:55:19;;;;;;;71.07;10.43;;;22.50;83.60;;;;;;5024671;28;20363;-57
2023/08/10 10:57:46;;;;;;;62.72;9.40;;;22.60;83.30;;;;;;5023706;28;20054;-56
2023/08/10 11:00:12;;;;;;;67.35;9.57;;;22.60;83.30;;;;;;5020304;28;20034;-57
2023/08/10 11:02:38;;;;;;;61.80;9.07;;;22.70;82.90;;;;;;5022906;28;20037;-57
2023/08/10 11:05:12;;;;;;;50.67;8.18;;;22.80;82.70;;;;;;5023058;28;20030;-57
2023/08/10 11:07:44;;;;;;;69.00;10.18;;;22.80;82.40;;;;;;4994322;28;20104;-55
2023/08/10 11:10:10;;;;;;;80.22;10.52;;;22.90;82.30;;;;;;5018884;28;20034;-57
2023/08/10 11:12:40;;;;;;;53.97;8.95;;;22.90;82.90;;;;;;5023051;28;20105;-56
2023/08/10 11:15:07;;;;;;;64.30;9.48;;;23.00;82.00;;;;;;5005667;28;20041;-56
2023/08/10 11:17:32;;;;;;;71.22;10.02;;;23.00;81.90;;;;;;5022535;28;20038;-56
2023/08/10 11:19:58;;;;;;;61.13;8.40;;;23.10;81.80;;;;;;5009878;28;20045;-56
2023/08/10 11:22:23;;;;;;;53.78;8.05;;;23.20;81.60;;;;;;5023593;28;20021;-56
2023/08/10 11:24:49;;;;;;;71.00;9.35;;;23.20;81.30;;;;;;5023882;28;20025;-56
2023/08/10 11:27:14;;;;;;;57.53;8.75;;;23.30;81.20;;;;;;5023945;28;20030;-56
2023/08/10 11:29:40;;;;;;;51.95;8.77;;;23.40;80.90;;;;;;5017646;28;20186;-56
2023/08/10 11:32:05;;;;;;;51.90;9.68;;;23.50;80.80;;;;;;5022101;28;20025;-56
2023/08/10 11:34:33;;;;;;;62.45;8.65;;;23.60;80.40;;;;;;5012067;28;20026;-56
2023/08/10 11:36:58;;;;;;;44.70;8.00;;;23.70;80.00;;;;;;5023412;28;20029;-56
2023/08/10 11:39:24;;;;;;;44.63;8.18;;;23.80;79.60;;;;;;5030196;28;20060;-56
2023/08/10 11:41:50;;;;;;;75.97;11.30;;;23.80;79.20;;;;;;5023183;28;20022;-57
2023/08/10 11:44:28;;;;;;;79.65;10.55;;;23.90;79.00;;;;;;5023011;28;20029;-56
2023/08/10 11:46:57;;;;;;;50.90;9.95;;;24.00;78.50;;;;;;5023524;28;20099;-56
2023/08/10 11:49:30;;;;;;;54.17;10.40;;;24.10;78.20;;;;;;5023426;28;20117;-56
2023/08/10 11:52:03;;;;;;;81.63;11.15;;;24.20;77.90;;;;;;5023175;28;20038;-56
2023/08/10 11:54:34;;;;;;;51.25;9.55;;;24.30;77.70;;;;;;5018365;28;20060;-56
2023/08/10 11:57:09;;;;;;;69.47;10.02;;;24.40;77.20;;;;;;5023330;28;20450;-57
2023/08/10 11:59:35;;;;;;;48.30;7.38;;;24.50;77.00;;;;;;5007026;28;20078;-56
2023/08/10 12:02:03;;;;;;;61.03;8.77;;;24.50;76.50;;;;;;5022777;28;20057;-56
2023/08/10 12:04:30;;;;;;;71.72;10.68;;;24.60;76.20;;;;;;5015239;28;20076;-56
2023/08/10 12:06:56;;;;;;;65.80;9.88;;;24.60;75.90;;;;;;5022752;28;20475;-57
2023/08/10 12:09:28;;;;;;;51.92;7.65;;;24.70;75.60;;;;;;5023032;28;20053;-56
2023/08/10 12:11:54;;;;;;;57.33;8.20;;;24.80;75.30;;;;;;5022784;28;20060;-57
2023/08/10 12:14:20;;;;;;;62.13;9.48;;;24.80;75.00;;;;;;5022768;28;20106;-56
2023/08/10 12:16:45;;;;;;;61.28;11.05;;;24.90;74.70;;;;;;5022852;28;20026;-56
2023/08/10 12:19:11;;;;;;;52.10;8.40;;;24.90;74.70;;;;;;5039248;28;20042;-57
2023/08/10 12:21:36;;;;;;;65.57;10.05;;;25.00;74.20;;;;;;5024253;28;20102;-56
2023/08/10 12:24:02;;;;;;;57.75;8.25;;;25.10;74.10;;;;;;5030785;28;20427;-56
2023/08/10 12:26:28;;;;;;;44.88;6.97;;;25.20;73.70;;;;;;5019403;28;20065;-56
2023/08/10 12:28:53;;;;;;;56.63;6.78;;;25.20;73.30;;;;;;5006417;28;20086;-56
2023/08/10 12:31:19;;;;;;;69.22;8.85;;;25.30;72.90;;;;;;5004876;28;20053;-56
2023/08/10 12:33:45;;;;;;;68.70;10.48;;;25.30;72.80;;;;;;5028444;28;20426;-56
2023/08/10 12:36:10;;;;;;;100.38;11.80;;;25.40;72.20;;;;;;5024911;28;20026;-56
2023/08/10 12:38:36;;;;;;;48.15;8.32;;;25.40;72.00;;;;;;5022665;28;20029;-56